x

Sentry Shoal (46131) Wave Buoy

2:00am - Sun 28th Aug 2016 All times are PDT. -7 hours from GMT.

  • Sig Wave height 0.3ft
  • Peak Period 3s
  • Wind
    4mph, 7mph gusts
  • Sea Temp 57°f
  • Air Temp 60°f
  • Sea Pressure 1014.1mb
  • Sentry Shoal
  • Sentry Shoal

More Historic Weather Station data

Upgrade to MSW Pro to gain access to the past 30 days of data for over 8000 Wavebouys and Weather Stations around the globe.

Join Pro

Comparision Forecast

View Surf forecast
   
Sun 08/28 2:00am 0.3ft 3s 4 7 mph 1014.1mb 57f 60f
1:00am 0.3ft 3s 4 7 mph 1013.6mb 57f 60f
12:00am 0.3ft 2s 7
mph
1013.1mb 58f 60f
Sat 08/27 11:00pm 0.3ft 3s 4 7 mph 1012.9mb 58f 62f
10:00pm 0.7ft 3s 4 7 mph 1012.3mb 58f 63f
9:00pm 1ft 3s 7 11 mph 1011.7mb 57f 64f
8:00pm 1ft 3s 11 13 mph 1010.9mb 57f 64f
7:00pm 1.3ft 3s 11 13 mph 1010.4mb 57f 64f
6:00pm 1.6ft 4s 9 11 mph 1010mb 58f 63f
5:00pm 1.6ft 4s 13 16 mph 1009.4mb 57f 64f
4:00pm 1.6ft 4s 18 22 mph 1008.9mb 58f 65f
3:00pm 1.6ft 4s 13 18 mph 1008.6mb 58f 64f
2:00pm 2ft 3s 11 13 mph 1008.5mb 57f 62f
1:00pm 1.6ft 3s 13 18 mph 1008.1mb 57f 63f
12:00pm 2ft 3s 16 18 mph 1008.2mb 57f 62f
11:00am 2ft 3s 22 27 mph 1007.6mb 57f 63f
10:00am 2ft 3s 22 27 mph 1007.9mb 58f 62f
9:00am 2.5ft 3s 20 25 mph 1007.8mb 59f 62f
8:00am 2.5ft 3s 20 25 mph 1007.9mb 60f 61f
7:00am 2.5ft 3s 22 25 mph 1007.9mb 59f 61f
6:00am  -   -  25
mph
1007.2mb - 62f
5:00am 1.6ft 3s 20 25 mph 1007.2mb 60f 62f
4:00am 1.3ft 3s 16 20 mph 1007.5mb 60f 63f
3:00am 1.6ft 3s 16 22 mph 1007.9mb 60f 64f
2:00am 1.6ft 4s 16 20 mph 1007.9mb 60f 65f
1:00am 1.3ft 4s 20 25 mph 1007.9mb 60f 66f
12:00am 1ft 3s 11 13 mph 1008.5mb 61f 67f
Fri 08/26 11:00pm 1.3ft 3s 16 18 mph 1008.8mb 62f 66f
10:00pm 1.3ft 3s 16 18 mph 1008.8mb 60f 67f
9:00pm 1.6ft 3s 11 13 mph 1009.3mb 59f 69f
8:00pm 0.7ft 2s 16 22 mph 1008.7mb 60f 71f
7:00pm 0.3ft 3s 13
mph
1008.6mb 63f 71f
6:00pm  -  2s 7 13 mph 1009mb 63f 74f
5:00pm 0.3ft 2s 7
mph
1009.5mb 63f 70f
4:00pm 0.3ft 2s 4
mph
1010.1mb 65f 69f
3:00pm 0.3ft 3s 2 4 mph 1010.7mb 63f 68f
2:00pm 0.3ft 3s 4 7 mph 1011.4mb 63f 68f
1:00pm 0.3ft 2s 2
mph
1012.3mb 64f 68f
12:00pm 0.3ft 2s 2
mph
1012.9mb 62f 65f
11:00am 0.3ft 2s 2 4 mph 1013.6mb 61f 62f
10:00am 0.3ft 2s 4 7 mph 1014mb 61f 62f
9:00am 0.3ft 3s 4
mph
1014.4mb 60f 62f
8:00am 0.3ft 2s 4
mph
1014.7mb 60f 61f
7:00am 0.3ft 2s 2 4 mph 1014.7mb 60f 60f
6:00am 0.3ft 2s 11
mph
1014.7mb 59f 63f
5:00am 0.3ft 2s 11
mph
1014.7mb 60f 64f
4:00am 0.7ft 2s 13 16 mph 1014.7mb 60f 65f
3:00am 0.7ft 2s 7 9 mph 1014.7mb 61f 64f
2:00am 0.7ft 2s 11
mph
1014.8mb 60f 65f
1:00am 0.3ft 2s 11
mph
1014.8mb 60f 65f
12:00am 0.3ft 2s 11 13 mph 1014.9mb 60f 66f
Thu 08/25 11:00pm 0.3ft 2s 11 13 mph 1014.8mb 61f 68f
10:00pm 0.3ft 2s 9 11 mph 1014.7mb 60f 69f
9:00pm 0.3ft 2s 7 9 mph 1014.7mb 59f 70f
8:00pm  -  2s 2 4 mph 1014.8mb 61f 66f
7:00pm  -  2s 4
mph
1014.8mb 60f 69f
6:00pm 0.3ft 3s 2 4 mph 1015.1mb 60f 68f
5:00pm 0.3ft 2s 4
mph
1015.8mb 60f 69f
4:00pm 0.3ft 3s 2 7 mph 1016.4mb 63f 71f
3:00pm 0.3ft 3s 4
mph
1017.1mb 62f 70f
2:00pm 0.3ft 2s 2 4 mph 1017.8mb 60f 69f
1:00pm 0.3ft 3s  -  2 mph 1018.8mb 61f 67f
12:00pm 0.3ft 2s  -  2 mph 1019.7mb 60f 65f
11:00am 0.3ft 2s 7
mph
1020.3mb 59f 66f
10:00am 0.3ft 2s 9
mph
1020.9mb 58f 62f
9:00am 0.7ft 2s 9
mph
1021.3mb 58f 61f
8:00am 0.7ft 2s 16
mph
1021.6mb 57f 62f
7:00am 0.7ft 2s 16 18 mph 1021.6mb 58f 63f
6:00am 0.7ft 2s 11 13 mph 1021.6mb 58f 62f
5:00am 1ft 2s 13 16 mph 1021.6mb 58f 63f
4:00am 0.7ft 2s 7 9 mph 1021.6mb 58f 62f
3:00am 0.7ft 2s 9 11 mph 1021.5mb 59f 62f
2:00am 0.7ft 2s 13 16 mph 1021.3mb 60f 64f
1:00am 0.7ft 2s 11 13 mph 1021.2mb 58f 64f
12:00am 0.7ft 2s 13
mph
1021.2mb 59f 66f
Wed 08/24 11:00pm 0.3ft 6s 13
mph
1021.1mb 59f 67f
10:00pm 0.3ft 6s 9 11 mph 1021.1mb 60f 66f
9:00pm 0.3ft 2s 9 11 mph 1021.1mb 60f 68f
8:00pm 0.3ft 2s  -  2 mph 1020.7mb 64f 69f
7:00pm  -  2s 4
mph
1020.8mb 63f 68f
6:00pm  -  2s 4
mph
1021.1mb 62f 69f
5:00pm  -  2s 4
mph
1021.7mb 59f 69f
4:00pm 0.3ft 3s 4
mph
1022.4mb 60f 70f
3:00pm 0.3ft 3s 2 4 mph 1023mb 64f 69f
2:00pm 0.3ft 2s 4
mph
1023.6mb 63f 66f
1:00pm 0.3ft 5s 2 4 mph 1024.2mb 61f 65f
12:00pm 0.3ft 3s 4
mph
1024.8mb 59f 64f
11:00am 0.3ft 2s 4 7 mph 1025.4mb 57f 61f